createdAt,value
2018-07-21T00:01:14.037Z,5.10
2018-07-21T00:03:42.469Z,5.10
2018-07-21T00:06:10.933Z,6.00
2018-07-21T00:08:39.383Z,4.90
2018-07-21T00:11:07.842Z,5.83
2018-07-21T00:13:36.284Z,4.37
2018-07-21T00:16:04.730Z,5.40
2018-07-21T00:18:33.168Z,4.97
2018-07-21T00:21:01.653Z,6.10
2018-07-21T00:23:30.148Z,5.73
2018-07-21T00:25:58.596Z,5.20
2018-07-21T00:28:27.036Z,5.27
2018-07-21T00:30:55.453Z,5.40
2018-07-21T00:33:23.963Z,6.17
2018-07-21T00:35:52.392Z,5.70
2018-07-21T00:38:20.849Z,5.47
2018-07-21T00:40:49.304Z,5.63
2018-07-21T00:43:17.748Z,5.50
2018-07-21T00:45:46.193Z,5.50
2018-07-21T00:48:14.340Z,6.00
2018-07-21T00:50:42.876Z,5.07
2018-07-21T00:53:11.600Z,5.60
2018-07-21T00:55:40.056Z,5.10
2018-07-21T00:58:08.524Z,5.20
2018-07-21T01:00:36.994Z,5.87
2018-07-21T01:03:05.502Z,5.93
2018-07-21T01:05:33.984Z,5.30
2018-07-21T01:08:02.456Z,5.90
2018-07-21T01:10:31.113Z,5.33
2018-07-21T01:12:59.641Z,6.13
2018-07-21T01:15:28.117Z,5.83
2018-07-21T01:17:56.561Z,6.10
2018-07-21T01:20:25.061Z,5.80
2018-07-21T01:22:53.499Z,4.77
2018-07-21T01:25:21.988Z,4.97
2018-07-21T01:27:50.472Z,5.37
2018-07-21T01:30:19.842Z,4.17
2018-07-21T01:32:48.280Z,5.30
2018-07-21T01:35:16.711Z,5.97
2018-07-21T01:37:45.165Z,6.03
2018-07-21T01:40:13.288Z,5.50
2018-07-21T01:42:41.793Z,6.00
2018-07-21T01:45:10.229Z,8.43
2018-07-21T01:47:38.681Z,10.13
2018-07-21T01:50:07.202Z,7.83
2018-07-21T01:52:35.636Z,6.30
2018-07-21T01:55:04.173Z,8.70
2018-07-21T01:57:32.613Z,7.27
2018-07-21T02:00:01.069Z,7.37
2018-07-21T02:02:29.211Z,7.37
2018-07-21T02:04:57.338Z,7.50
2018-07-21T02:07:25.777Z,6.40
2018-07-21T02:09:54.228Z,6.53
2018-07-21T02:12:22.666Z,6.60
2018-07-21T02:14:51.261Z,7.10
2018-07-21T02:17:19.732Z,5.83
2018-07-21T02:19:48.157Z,6.87
2018-07-21T02:22:16.614Z,5.90
2018-07-21T02:24:45.062Z,5.90
2018-07-21T02:27:13.651Z,5.40
2018-07-21T02:29:42.097Z,5.60
2018-07-21T02:32:10.673Z,6.13
2018-07-21T02:34:39.125Z,4.93
2018-07-21T02:37:07.598Z,6.70
2018-07-21T02:39:36.058Z,6.03
2018-07-21T02:42:04.513Z,5.00
2018-07-21T02:44:33.004Z,5.20
2018-07-21T02:47:01.446Z,4.27
2018-07-21T02:49:29.937Z,5.33
2018-07-21T02:51:58.373Z,4.80
2018-07-21T02:54:26.824Z,5.50
2018-07-21T02:56:54.964Z,4.93
2018-07-21T02:59:23.393Z,4.73
2018-07-21T03:01:51.864Z,5.37
2018-07-21T03:04:20.309Z,5.30
2018-07-21T03:06:48.809Z,5.60
2018-07-21T03:09:17.287Z,4.87
2018-07-21T03:11:45.727Z,6.13
2018-07-21T03:14:14.173Z,5.30
2018-07-21T03:16:42.678Z,5.47
2018-07-21T03:19:11.128Z,6.13
2018-07-21T03:21:39.581Z,6.00
2018-07-21T03:24:08.194Z,5.57
2018-07-21T03:26:43.248Z,5.17
2018-07-21T03:29:11.702Z,5.00
2018-07-21T03:31:40.147Z,5.30
2018-07-21T03:34:08.588Z,6.33
2018-07-21T03:36:37.029Z,6.10
2018-07-21T03:39:08.811Z,5.37
2018-07-21T03:41:37.256Z,6.87
2018-07-21T03:44:05.748Z,5.77
2018-07-21T03:46:34.485Z,6.70
2018-07-21T03:49:02.952Z,7.30
2018-07-21T03:51:31.415Z,6.27
2018-07-21T03:53:59.956Z,6.90
2018-07-21T03:56:28.389Z,6.23
2018-07-21T03:58:56.816Z,6.57
2018-07-21T04:01:24.937Z,7.37
2018-07-21T04:03:53.377Z,6.23
2018-07-21T04:06:21.816Z,7.10
2018-07-21T04:08:50.269Z,6.23
2018-07-21T04:11:18.705Z,6.20
2018-07-21T04:13:47.125Z,7.70
2018-07-21T04:16:15.565Z,6.60
2018-07-21T04:18:43.985Z,8.20
2018-07-21T04:21:12.440Z,7.57
2018-07-21T04:23:40.865Z,8.07
2018-07-21T04:26:09.325Z,7.50
2018-07-21T04:28:37.822Z,8.20
2018-07-21T04:31:06.352Z,7.53
2018-07-21T04:33:34.776Z,7.67
2018-07-21T04:36:03.205Z,7.33
2018-07-21T04:38:31.654Z,6.90
2018-07-21T04:41:00.118Z,7.33
2018-07-21T04:43:28.230Z,7.00
2018-07-21T04:45:56.669Z,6.90
2018-07-21T04:48:25.099Z,6.47
2018-07-21T04:50:53.520Z,7.10
2018-07-21T04:53:21.964Z,6.53
2018-07-21T04:55:50.064Z,7.83
2018-07-21T04:58:18.504Z,6.70
2018-07-21T05:00:46.963Z,6.43
2018-07-21T05:03:15.393Z,6.47
2018-07-21T05:05:43.832Z,7.60
2018-07-21T05:08:12.276Z,8.00
2018-07-21T05:10:40.720Z,6.10
2018-07-21T05:13:09.185Z,7.93
2018-07-21T05:15:37.644Z,7.37
2018-07-21T05:18:06.161Z,6.20
2018-07-21T05:20:34.637Z,6.20
2018-07-21T05:23:03.073Z,7.63
2018-07-21T05:25:31.512Z,7.00
2018-07-21T05:27:59.953Z,7.67
2018-07-21T05:30:28.652Z,7.30
2018-07-21T05:32:57.103Z,10.20
2018-07-21T05:35:25.548Z,8.67
2018-07-21T05:37:54.307Z,7.17
2018-07-21T05:40:22.789Z,7.80
2018-07-21T05:42:51.256Z,8.57
2018-07-21T05:45:19.681Z,8.67
2018-07-21T05:47:48.136Z,8.63
2018-07-21T05:50:16.594Z,10.07
2018-07-21T05:52:45.089Z,10.77
2018-07-21T05:55:13.600Z,9.43
2018-07-21T05:57:42.079Z,9.50
2018-07-21T06:00:12.648Z,9.07
2018-07-21T06:02:41.178Z,9.83
2018-07-21T06:05:09.693Z,10.23
2018-07-21T06:07:38.172Z,10.53
2018-07-21T06:10:06.665Z,10.30
2018-07-21T06:12:35.129Z,8.73
2018-07-21T06:15:03.688Z,10.47
2018-07-21T06:17:32.152Z,11.20
2018-07-21T06:20:00.790Z,10.20
2018-07-21T06:22:29.497Z,8.40
2018-07-21T06:24:57.926Z,11.47
2018-07-21T06:27:26.421Z,10.67
2018-07-21T06:29:54.875Z,9.20
2018-07-21T06:32:23.335Z,10.43
2018-07-21T06:34:51.814Z,11.30
2018-07-21T06:37:20.277Z,10.33
2018-07-21T06:39:48.733Z,12.13
2018-07-21T06:42:17.208Z,11.10
2018-07-21T06:44:45.695Z,11.03
2018-07-21T06:47:14.135Z,10.63
2018-07-21T06:49:42.605Z,11.30
2018-07-21T06:52:11.189Z,10.50
2018-07-21T06:54:39.640Z,11.10
2018-07-21T06:57:08.165Z,10.90
2018-07-21T06:59:36.628Z,12.00
2018-07-21T07:02:05.165Z,9.17
2018-07-21T07:04:33.647Z,9.93
2018-07-21T07:07:02.128Z,10.37
2018-07-21T07:09:30.601Z,9.60
2018-07-21T07:11:59.112Z,10.50
2018-07-21T07:14:27.573Z,8.73
2018-07-21T07:16:56.023Z,10.63
2018-07-21T07:19:24.524Z,9.97
2018-07-21T07:21:53.025Z,12.03
2018-07-21T07:24:21.729Z,11.50
2018-07-21T07:26:50.177Z,10.13
2018-07-21T07:29:18.645Z,11.47
2018-07-21T07:31:47.077Z,7.87
2018-07-21T07:34:15.509Z,12.03
2018-07-21T07:36:43.943Z,11.50
2018-07-21T07:39:12.426Z,11.60
2018-07-21T07:41:40.913Z,12.50
2018-07-21T07:44:09.413Z,13.03
2018-07-21T07:46:37.840Z,10.83
2018-07-21T07:49:06.688Z,12.10
2018-07-21T07:51:35.132Z,10.57
2018-07-21T07:54:03.645Z,12.30
2018-07-21T07:56:32.161Z,9.90
2018-07-21T07:59:00.625Z,11.13
2018-07-21T08:01:29.579Z,10.73
2018-07-21T08:03:58.031Z,11.30
2018-07-21T08:06:26.528Z,10.80
2018-07-21T08:08:54.993Z,11.73
2018-07-21T08:11:23.455Z,11.20
2018-07-21T08:13:51.881Z,10.10
2018-07-21T08:16:20.326Z,10.47
2018-07-21T08:18:48.794Z,10.03
2018-07-21T08:21:17.248Z,10.93
2018-07-21T08:23:45.828Z,11.17
2018-07-21T08:26:14.297Z,10.37
2018-07-21T08:28:42.769Z,10.80
2018-07-21T08:31:11.245Z,9.27
2018-07-21T08:33:39.685Z,11.27
2018-07-21T08:36:08.610Z,11.27
2018-07-21T08:38:37.084Z,11.00
2018-07-21T08:41:05.605Z,10.87
2018-07-21T08:43:34.061Z,9.63
2018-07-21T08:46:02.550Z,10.07
2018-07-21T08:48:30.923Z,11.00
2018-07-21T08:50:59.441Z,11.10
2018-07-21T08:53:27.887Z,9.20
2018-07-21T08:55:56.439Z,9.97
2018-07-21T08:58:24.884Z,9.20
2018-07-21T09:00:53.369Z,9.17
2018-07-21T09:03:21.884Z,9.40
2018-07-21T09:05:50.400Z,8.87
2018-07-21T09:08:18.852Z,8.83
2018-07-21T09:10:47.299Z,8.70
2018-07-21T09:13:15.771Z,9.20
2018-07-21T09:15:44.280Z,8.33
2018-07-21T09:18:12.741Z,7.87
2018-07-21T09:20:41.219Z,9.10
2018-07-21T09:23:09.665Z,8.23
2018-07-21T09:25:38.104Z,9.10
2018-07-21T09:28:06.649Z,10.10
2018-07-21T09:30:35.185Z,7.10
2018-07-21T09:33:03.704Z,8.73
2018-07-21T09:35:32.261Z,7.40
2018-07-21T09:38:00.713Z,8.07
2018-07-21T09:40:29.227Z,8.03
2018-07-21T09:42:57.807Z,7.37
2018-07-21T09:45:26.282Z,8.00
2018-07-21T09:47:54.727Z,6.77
2018-07-21T09:50:23.191Z,6.97
2018-07-21T09:52:51.649Z,7.87
2018-07-21T09:55:20.165Z,7.90
2018-07-21T09:57:48.600Z,8.37
2018-07-21T10:00:22.365Z,9.27
2018-07-21T10:02:50.814Z,7.07
2018-07-21T10:05:19.295Z,7.70
2018-07-21T10:07:47.796Z,7.43
2018-07-21T10:10:15.957Z,7.17
2018-07-21T10:12:44.420Z,6.47
2018-07-21T10:15:12.935Z,7.07
2018-07-21T10:17:42.346Z,7.73
2018-07-21T10:20:10.840Z,6.53
2018-07-21T10:22:39.553Z,6.50
2018-07-21T10:25:13.458Z,7.40
2018-07-21T10:27:47.500Z,6.83
2018-07-21T10:30:16.089Z,8.30
2018-07-21T10:32:44.448Z,7.90
2018-07-21T10:35:13.050Z,6.70
2018-07-21T10:37:41.585Z,6.73
2018-07-21T10:40:10.241Z,6.80
2018-07-21T10:42:38.746Z,6.27
2018-07-21T10:45:07.221Z,8.33
2018-07-21T10:47:35.707Z,6.50
2018-07-21T10:50:04.201Z,7.90
2018-07-21T10:52:32.673Z,6.80
2018-07-21T10:55:01.129Z,6.60
2018-07-21T10:57:29.626Z,8.37
2018-07-21T10:59:58.109Z,7.63
2018-07-21T11:02:26.577Z,6.10
2018-07-21T11:04:55.016Z,5.50
2018-07-21T11:07:23.500Z,5.73
2018-07-21T11:09:51.968Z,7.00
2018-07-21T11:12:20.126Z,5.20
2018-07-21T11:14:48.593Z,7.10
2018-07-21T11:17:17.078Z,6.97
2018-07-21T11:19:45.598Z,7.57
2018-07-21T11:22:14.059Z,7.73
2018-07-21T11:24:42.701Z,8.60
2018-07-21T11:27:11.170Z,5.80
2018-07-21T11:29:39.725Z,7.67
2018-07-21T11:32:08.214Z,5.60
2018-07-21T11:34:36.726Z,4.93
2018-07-21T11:37:05.255Z,7.27
2018-07-21T11:39:33.716Z,6.23
2018-07-21T11:42:02.278Z,5.20
2018-07-21T11:44:30.835Z,6.40
2018-07-21T11:46:59.288Z,6.73
2018-07-21T11:49:27.753Z,5.83
2018-07-21T11:51:56.244Z,5.57
2018-07-21T11:54:24.685Z,6.17
2018-07-21T11:56:57.105Z,5.77
2018-07-21T11:59:25.574Z,5.23
2018-07-21T12:01:54.066Z,5.40
2018-07-21T12:04:22.976Z,5.40
2018-07-21T12:06:51.796Z,7.70
2018-07-21T12:09:20.269Z,6.83
2018-07-21T12:11:48.749Z,6.57
2018-07-21T12:14:16.880Z,7.73
2018-07-21T12:16:45.400Z,7.13
2018-07-21T12:19:13.507Z,7.73
2018-07-21T12:21:42.002Z,8.30
2018-07-21T12:24:10.464Z,7.20
2018-07-21T12:26:38.988Z,8.47
2018-07-21T12:29:07.462Z,8.40
2018-07-21T12:31:35.938Z,8.00
2018-07-21T12:34:04.460Z,8.27
2018-07-21T12:36:32.949Z,8.30
2018-07-21T12:39:01.461Z,6.40
2018-07-21T12:41:29.934Z,6.23
2018-07-21T12:43:58.077Z,8.33
2018-07-21T12:46:26.557Z,6.60
2018-07-21T12:48:55.006Z,5.60
2018-07-21T12:51:23.687Z,8.40
2018-07-21T12:53:52.157Z,6.90
2018-07-21T12:56:20.641Z,6.43
2018-07-21T12:58:49.118Z,6.73
2018-07-21T13:01:17.584Z,7.67
2018-07-21T13:03:46.095Z,5.70
2018-07-21T13:06:14.557Z,7.17
2018-07-21T13:08:43.049Z,7.73
2018-07-21T13:11:11.541Z,7.20
2018-07-21T13:13:40.030Z,7.50
2018-07-21T13:16:08.164Z,6.73
2018-07-21T13:18:36.672Z,7.10
2018-07-21T13:21:05.209Z,7.70
2018-07-21T13:23:33.693Z,6.97
2018-07-21T13:26:02.184Z,6.17
2018-07-21T13:28:30.992Z,5.73
2018-07-21T13:30:59.456Z,7.90
2018-07-21T13:33:28.276Z,7.33
2018-07-21T13:35:56.396Z,7.97
2018-07-21T13:38:25.094Z,7.53
2018-07-21T13:40:53.565Z,8.63
2018-07-21T13:43:22.112Z,7.67
2018-07-21T13:45:50.635Z,7.90
2018-07-21T13:48:19.077Z,7.07
2018-07-21T13:50:47.530Z,7.33
2018-07-21T13:53:15.678Z,7.60
2018-07-21T13:55:44.142Z,7.10
2018-07-21T13:58:12.613Z,8.57
2018-07-21T14:00:41.061Z,7.60
2018-07-21T14:03:09.583Z,7.30
2018-07-21T14:05:38.064Z,7.80
2018-07-21T14:08:06.509Z,8.67
2018-07-21T14:10:34.981Z,7.93
2018-07-21T14:13:03.429Z,6.70
2018-07-21T14:15:31.897Z,6.60
2018-07-21T14:18:00.357Z,7.50
2018-07-21T14:20:28.896Z,6.83
2018-07-21T14:22:57.361Z,7.40
2018-07-21T14:25:25.476Z,6.90
2018-07-21T14:27:53.940Z,7.97
2018-07-21T14:30:22.433Z,8.13
2018-07-21T14:32:50.884Z,9.03
2018-07-21T14:35:19.332Z,8.70
2018-07-21T14:37:47.810Z,8.63
2018-07-21T14:40:16.293Z,9.30
2018-07-21T14:42:44.741Z,8.10
2018-07-21T14:45:13.276Z,9.33
2018-07-21T14:47:41.706Z,9.30
2018-07-21T14:50:10.203Z,8.87
2018-07-21T14:52:38.324Z,8.30
2018-07-21T14:55:06.884Z,8.17
2018-07-21T14:57:35.352Z,7.63
2018-07-21T15:00:04.393Z,8.80
2018-07-21T15:02:32.935Z,7.07
2018-07-21T15:05:01.409Z,11.57
2018-07-21T15:07:29.906Z,8.73
2018-07-21T15:09:58.018Z,8.23
2018-07-21T15:12:26.493Z,9.43
2018-07-21T15:14:54.989Z,8.00
2018-07-21T15:17:23.452Z,9.00
2018-07-21T15:19:51.929Z,9.30
2018-07-21T15:22:20.414Z,8.80
2018-07-21T15:24:48.890Z,7.83
2018-07-21T15:27:17.323Z,7.20
2018-07-21T15:29:45.829Z,9.20
2018-07-21T15:32:14.297Z,9.53
2018-07-21T15:34:42.747Z,8.60
2018-07-21T15:37:11.217Z,8.20
2018-07-21T15:39:39.667Z,7.37
2018-07-21T15:42:08.362Z,8.27
2018-07-21T15:44:36.808Z,7.07
2018-07-21T15:47:05.270Z,7.10
2018-07-21T15:49:33.762Z,7.67
2018-07-21T15:52:02.257Z,6.83
2018-07-21T15:54:30.804Z,8.40
2018-07-21T15:56:59.281Z,8.00
2018-07-21T15:59:27.742Z,7.47
2018-07-21T16:01:56.215Z,7.37
2018-07-21T16:04:24.732Z,9.70
2018-07-21T16:06:53.204Z,9.23
2018-07-21T16:09:21.657Z,7.00
2018-07-21T16:11:50.137Z,7.20
2018-07-21T16:14:18.639Z,8.20
2018-07-21T16:16:47.116Z,8.13
2018-07-21T16:19:15.617Z,8.03
2018-07-21T16:21:44.097Z,9.00
2018-07-21T16:24:12.696Z,9.40
2018-07-21T16:26:41.162Z,8.40
2018-07-21T16:29:09.791Z,10.27
2018-07-21T16:31:38.246Z,9.50
2018-07-21T16:34:06.846Z,9.40
2018-07-21T16:36:34.969Z,10.10
2018-07-21T16:39:03.534Z,10.00
2018-07-21T16:41:31.688Z,8.90
2018-07-21T16:44:00.449Z,10.57
2018-07-21T16:46:28.905Z,10.23
2018-07-21T16:48:57.431Z,9.70
2018-07-21T16:51:25.875Z,9.67
2018-07-21T16:53:54.345Z,10.50
2018-07-21T16:56:22.793Z,9.50
2018-07-21T16:58:51.274Z,11.47
2018-07-21T17:01:19.973Z,12.73
2018-07-21T17:03:48.438Z,11.17
2018-07-21T17:06:16.921Z,10.70
2018-07-21T17:08:45.411Z,11.90
2018-07-21T17:11:14.037Z,10.43
2018-07-21T17:13:42.504Z,10.47
2018-07-21T17:16:10.946Z,11.10
2018-07-21T17:18:39.426Z,10.40
2018-07-21T17:21:07.925Z,11.13
2018-07-21T17:23:36.499Z,11.57
2018-07-21T17:26:05.009Z,11.50
2018-07-21T17:28:33.507Z,13.53
2018-07-21T17:31:01.990Z,10.27
2018-07-21T17:33:30.466Z,11.70
2018-07-21T17:35:58.921Z,10.03
2018-07-21T17:38:27.385Z,10.70
2018-07-21T17:40:55.869Z,9.80
2018-07-21T17:43:24.337Z,11.13
2018-07-21T17:45:52.846Z,11.47
2018-07-21T17:48:21.430Z,10.50
2018-07-21T17:50:49.929Z,10.17
2018-07-21T17:53:19.546Z,11.87
2018-07-21T17:55:48.018Z,11.90
2018-07-21T17:58:16.515Z,10.53
2018-07-21T18:00:45.017Z,11.40
2018-07-21T18:03:13.480Z,11.20
2018-07-21T18:05:41.958Z,11.60
2018-07-21T18:08:10.448Z,11.43
2018-07-21T18:10:38.933Z,10.60
2018-07-21T18:13:07.418Z,11.03
2018-07-21T18:15:35.891Z,11.00
2018-07-21T18:18:04.452Z,10.00
2018-07-21T18:20:32.593Z,11.13
2018-07-21T18:23:01.081Z,10.47
2018-07-21T18:25:29.620Z,11.77
2018-07-21T18:27:58.298Z,11.47
2018-07-21T18:30:26.869Z,12.30
2018-07-21T18:32:55.363Z,12.87
2018-07-21T18:35:23.853Z,13.70
2018-07-21T18:37:52.304Z,12.90
2018-07-21T18:40:20.770Z,16.03
2018-07-21T18:42:49.276Z,14.30
2018-07-21T18:45:17.994Z,13.40
2018-07-21T18:47:46.476Z,14.73
2018-07-21T18:50:15.284Z,13.20
2018-07-21T18:52:43.907Z,12.50
2018-07-21T18:55:12.460Z,13.73
2018-07-21T18:57:40.952Z,14.00
2018-07-21T19:00:09.487Z,13.30
2018-07-21T19:02:37.921Z,14.07
2018-07-21T19:05:06.658Z,14.70
2018-07-21T19:07:35.237Z,14.83
2018-07-21T19:10:04.132Z,14.17
2018-07-21T19:12:37.885Z,13.10
2018-07-21T19:15:06.407Z,13.90
2018-07-21T19:17:34.528Z,14.20
2018-07-21T19:20:08.341Z,15.20
2018-07-21T19:22:36.837Z,15.80
2018-07-21T19:25:11.032Z,18.40
2018-07-21T19:27:40.014Z,16.40
2018-07-21T19:30:08.537Z,14.20
2018-07-21T19:32:42.485Z,15.00
2018-07-21T19:35:10.972Z,15.50
2018-07-21T19:37:44.842Z,17.67
2018-07-21T19:40:13.391Z,15.97
2018-07-21T19:42:41.889Z,16.03
2018-07-21T19:45:10.375Z,15.63
2018-07-21T19:47:38.986Z,16.00
2018-07-21T19:50:07.464Z,16.20
2018-07-21T19:52:35.990Z,15.47
2018-07-21T19:55:04.676Z,14.00
2018-07-21T19:57:33.483Z,14.50
2018-07-21T20:03:39.921Z,15.03
2018-07-21T20:06:08.524Z,16.40
2018-07-21T20:08:37.987Z,16.90
2018-07-21T20:11:06.485Z,18.50
2018-07-21T20:13:34.987Z,17.10
2018-07-21T20:16:03.458Z,17.07
2018-07-21T20:18:31.959Z,16.17
2018-07-21T20:21:00.593Z,16.40
2018-07-21T20:23:29.105Z,17.10
2018-07-21T20:25:57.573Z,16.90
2018-07-21T20:28:26.064Z,14.60
2018-07-21T20:30:54.694Z,16.73
2018-07-21T20:33:23.166Z,16.33
2018-07-21T20:35:51.702Z,17.77
2018-07-21T20:38:20.168Z,15.87
2018-07-21T20:40:48.660Z,17.77
2018-07-21T20:43:17.122Z,19.80
2018-07-21T20:45:45.609Z,18.67
2018-07-21T20:48:14.091Z,21.03
2018-07-21T20:50:42.627Z,19.43
2018-07-21T20:53:11.193Z,16.87
2018-07-21T20:55:39.695Z,16.97
2018-07-21T20:58:08.198Z,17.30
2018-07-21T21:00:36.748Z,16.10
2018-07-21T21:03:05.358Z,16.60
2018-07-21T21:05:33.838Z,13.77
2018-07-21T21:08:02.325Z,13.33
2018-07-21T21:10:30.836Z,13.00
2018-07-21T21:12:59.510Z,14.97
2018-07-21T21:15:28.259Z,13.90
2018-07-21T21:17:56.838Z,13.13
2018-07-21T21:20:25.356Z,13.10
2018-07-21T21:22:53.835Z,12.80
2018-07-21T21:25:22.345Z,12.83
2018-07-21T21:27:51.426Z,13.30
2018-07-21T21:30:19.977Z,13.60
2018-07-21T21:32:51.336Z,11.60
2018-07-21T21:35:19.963Z,12.67
2018-07-21T21:37:48.480Z,13.50
2018-07-21T21:40:17.908Z,14.17
2018-07-21T21:42:46.808Z,12.13
2018-07-21T21:45:15.297Z,12.87
2018-07-21T21:47:43.761Z,13.47
2018-07-21T21:50:12.334Z,13.03
2018-07-21T21:52:40.898Z,11.80
2018-07-21T21:55:09.421Z,10.80
2018-07-21T21:57:37.916Z,11.53
2018-07-21T22:00:11.129Z,12.37
2018-07-21T22:02:40.077Z,11.27
2018-07-21T22:05:08.590Z,11.63
2018-07-21T22:07:37.108Z,9.97
2018-07-21T22:10:05.683Z,11.77
2018-07-21T22:12:34.852Z,13.10
2018-07-21T22:15:03.409Z,11.37
2018-07-21T22:17:31.954Z,11.47
2018-07-21T22:20:00.461Z,11.33
2018-07-21T22:22:28.945Z,10.50
2018-07-21T22:24:57.442Z,10.63
2018-07-21T22:27:25.925Z,10.90
2018-07-21T22:29:54.485Z,9.30
2018-07-21T22:32:22.946Z,9.10
2018-07-21T22:34:51.447Z,9.83
2018-07-21T22:37:19.960Z,9.17
2018-07-21T22:39:48.469Z,8.53
2018-07-21T22:42:16.993Z,9.80
2018-07-21T22:44:45.458Z,10.23
2018-07-21T22:47:13.930Z,9.27
2018-07-21T22:49:42.402Z,9.97
2018-07-21T22:52:10.859Z,10.27
2018-07-21T22:54:39.327Z,9.20
2018-07-21T22:57:07.769Z,9.97
2018-07-21T22:59:36.246Z,9.10
2018-07-21T23:02:04.708Z,8.03
2018-07-21T23:04:33.377Z,8.97
2018-07-21T23:07:01.820Z,9.07
2018-07-21T23:09:30.257Z,8.90
2018-07-21T23:11:58.729Z,9.37
2018-07-21T23:14:27.219Z,8.40
2018-07-21T23:16:55.679Z,8.93
2018-07-21T23:19:24.162Z,7.20
2018-07-21T23:21:52.657Z,8.13
2018-07-21T23:24:21.110Z,7.90
2018-07-21T23:26:49.564Z,9.17
2018-07-21T23:29:18.041Z,7.57
2018-07-21T23:31:46.497Z,8.20
2018-07-21T23:34:14.965Z,12.33
2018-07-21T23:36:43.410Z,9.07
2018-07-21T23:39:11.912Z,9.07
2018-07-21T23:41:40.446Z,7.90
2018-07-21T23:44:08.893Z,8.20
2018-07-21T23:46:37.366Z,8.93
2018-07-21T23:49:06.116Z,9.53
2018-07-21T23:51:34.626Z,9.17
2018-07-21T23:54:03.108Z,9.40
2018-07-21T23:56:31.691Z,9.30
2018-07-21T23:59:00.195Z,9.73
